Time;durP1;ratioP1;P1;durP2;ratioP2;P2;SDS_P1;SDS_P2;PMS_P1;PMS_P2;Temp;Humidity;BMP_temperature;BMP_pressure;BME280_temperature;BME280_humidity;BME280_pressure;Samples;Min_cycle;Max_cycle;Signal;HPM_P1;HPM_P2
2024/01/22 00:01:50;;;;;;;8.10;6.80;;;1.40;64.40;;;0.13;68.26;98731.88;5128740;27;20455;-78
2024/01/22 00:04:18;;;;;;;7.83;6.93;;;1.40;64.50;;;0.05;68.25;98725.53;5123800;27;20452;-74
2024/01/22 00:06:45;;;;;;;9.33;7.10;;;1.30;64.50;;;0.04;68.51;98726.50;5116626;27;21357;-78
2024/01/22 00:09:14;;;;;;;7.13;6.43;;;1.30;64.50;;;0.02;68.59;98723.13;5121902;27;20453;-77
2024/01/22 00:11:41;;;;;;;8.10;6.60;;;1.20;64.60;;;-0.01;68.52;98725.09;5147746;27;20447;-79
2024/01/22 00:14:09;;;;;;;7.27;6.50;;;1.20;64.60;;;0.01;68.51;98710.84;5139780;27;20937;-79
2024/01/22 00:16:40;;;;;;;10.27;6.80;;;1.20;64.50;;;-0.06;68.72;98700.75;5138904;27;20455;-74
2024/01/22 00:19:08;;;;;;;10.83;6.60;;;1.10;64.60;;;-0.13;68.77;98688.09;5120243;27;20478;-78
2024/01/22 00:21:36;;;;;;;11.77;7.60;;;1.10;64.70;;;-0.12;69.12;98680.00;5142718;27;20448;-77
2024/01/22 00:24:03;;;;;;;7.57;6.27;;;1.10;64.70;;;-0.16;69.05;98676.75;5143100;27;20463;-72
2024/01/22 00:26:32;;;;;;;9.87;6.20;;;1.10;64.70;;;-0.14;69.03;98671.31;5140082;27;20469;-73
2024/01/22 00:28:59;;;;;;;9.10;6.80;;;1.10;64.60;;;-0.15;69.21;98674.94;5137928;27;20515;-76
2024/01/22 00:31:25;;;;;;;9.17;6.80;;;1.10;64.80;;;-0.21;69.32;98648.91;5123097;27;20891;-69
2024/01/22 00:33:53;;;;;;;11.83;6.20;;;1.10;64.80;;;-0.20;69.37;98666.53;5115203;27;20513;-75
2024/01/22 00:36:20;;;;;;;7.87;5.60;;;1.10;65.00;;;-0.26;69.39;98640.47;5143029;27;20451;-75
2024/01/22 00:38:47;;;;;;;8.20;5.80;;;1.10;64.90;;;-0.16;69.31;98655.50;5143936;27;20452;-76
2024/01/22 00:41:15;;;;;;;9.43;6.00;;;1.10;65.10;;;-0.16;69.42;98641.38;5140889;27;20846;-76
2024/01/22 00:43:45;;;;;;;8.20;6.10;;;1.10;65.10;;;-0.18;69.71;98644.16;5126503;27;21167;-75
2024/01/22 00:46:12;;;;;;;12.80;5.77;;;1.10;65.10;;;-0.20;69.79;98639.97;5137600;27;20453;-69
2024/01/22 00:48:39;;;;;;;10.00;6.07;;;1.10;65.30;;;-0.23;70.25;98638.41;5140579;27;20511;-77
2024/01/22 00:51:07;;;;;;;9.13;6.13;;;1.00;65.40;;;-0.12;69.95;98636.66;5144831;27;21249;-75
2024/01/22 00:53:34;;;;;;;7.53;6.30;;;1.00;65.50;;;-0.21;70.18;98630.31;5128720;27;20968;-74
2024/01/22 00:56:02;;;;;;;8.20;5.87;;;1.00;65.50;;;-0.19;70.24;98636.34;5135383;27;21348;-78
2024/01/22 00:58:29;;;;;;;8.73;5.93;;;1.00;65.60;;;-0.11;70.13;98647.13;5141256;27;20903;-76
2024/01/22 01:00:58;;;;;;;7.60;5.60;;;1.10;65.70;;;-0.24;70.32;98620.78;5138222;27;20483;-77
2024/01/22 01:03:26;;;;;;;9.10;5.77;;;1.10;65.60;;;-0.07;70.29;98635.28;5119723;27;20470;-77
2024/01/22 01:05:53;;;;;;;6.93;5.57;;;1.20;65.80;;;-0.13;70.40;98625.19;5134870;27;21065;-76
2024/01/22 01:08:19;;;;;;;7.63;6.33;;;1.10;65.60;;;-0.12;70.80;98626.84;5140413;27;20451;-80
2024/01/22 01:10:48;;;;;;;8.97;5.80;;;1.10;65.80;;;-0.08;70.51;98628.28;5132564;27;20452;-79
2024/01/22 01:13:17;;;;;;;6.60;5.10;;;1.10;65.90;;;-0.16;70.96;98617.47;5141766;27;20446;-80
2024/01/22 01:15:46;;;;;;;8.97;6.53;;;1.10;66.20;;;-0.18;70.91;98625.56;5122888;27;20447;-77
2024/01/22 01:18:15;;;;;;;10.50;6.57;;;1.10;66.00;;;-0.21;70.86;98623.19;5141502;27;20451;-77
2024/01/22 01:20:44;;;;;;;10.50;6.10;;;1.10;66.10;;;-0.27;71.07;98617.53;5133587;27;20514;-77
2024/01/22 01:23:11;;;;;;;9.53;7.60;;;1.10;66.10;;;-0.27;71.15;98612.25;5135179;27;20466;-76
2024/01/22 01:25:40;;;;;;;10.23;5.47;;;1.00;66.10;;;-0.29;71.66;98605.25;5142741;27;20452;-75
2024/01/22 01:28:08;;;;;;;8.73;5.43;;;1.00;66.40;;;-0.30;71.45;98602.75;5121821;27;20466;-74
2024/01/22 01:30:35;;;;;;;7.00;5.97;;;1.00;66.20;;;-0.31;71.40;98606.34;5136413;27;20544;-77
2024/01/22 01:33:02;;;;;;;8.40;6.07;;;0.90;66.30;;;-0.34;71.85;98596.00;5139097;27;20452;-77
2024/01/22 01:35:31;;;;;;;8.63;6.17;;;0.90;66.40;;;-0.83;71.64;98516.06;5137531;27;20550;-75
2024/01/22 01:38:00;;;;;;;10.87;6.50;;;0.90;66.40;;;-0.40;71.61;98592.03;5097064;27;20457;-78
2024/01/22 01:40:27;;;;;;;8.37;6.43;;;0.90;66.20;;;-0.39;71.32;98585.75;5142671;27;20527;-70
2024/01/22 01:42:56;;;;;;;8.50;5.67;;;0.90;66.10;;;-0.33;71.15;98587.91;5146222;27;20512;-77
2024/01/22 01:45:23;;;;;;;6.33;5.40;;;0.90;66.10;;;-0.35;70.77;98581.03;5148133;27;20639;-76
2024/01/22 01:47:54;;;;;;;8.33;6.13;;;0.90;65.80;;;-0.36;70.79;98572.25;5137024;27;20483;-73
2024/01/22 01:50:23;;;;;;;9.23;5.83;;;1.00;65.80;;;-0.33;70.97;98571.97;5103675;27;20460;-77
2024/01/22 01:52:53;;;;;;;7.20;5.40;;;0.90;65.50;;;-0.27;69.89;98565.28;5116217;27;20472;-76
2024/01/22 01:55:22;;;;;;;8.17;5.50;;;1.00;65.40;;;-0.34;69.97;98554.34;5143388;27;20449;-76
2024/01/22 01:57:51;;;;;;;7.27;5.70;;;1.00;65.60;;;-0.30;70.05;98549.63;5128824;27;21003;-79
2024/01/22 02:00:19;;;;;;;6.97;5.90;;;1.00;65.10;;;-0.24;69.45;98548.22;5127282;27;20524;-76
2024/01/22 02:02:47;;;;;;;6.80;5.27;;;1.00;64.90;;;-0.29;69.06;98541.50;5126593;27;20460;-75
2024/01/22 02:05:16;;;;;;;7.53;5.53;;;1.00;64.90;;;-0.24;69.09;98556.19;5141072;27;20457;-73
2024/01/22 02:07:44;;;;;;;8.37;5.20;;;1.00;64.70;;;-0.22;68.63;98559.59;5131757;27;20505;-76
2024/01/22 02:10:14;;;;;;;9.50;5.33;;;1.10;64.50;;;-0.16;68.25;98561.69;5135476;27;20440;-74
2024/01/22 02:12:41;;;;;;;6.53;4.80;;;1.10;64.30;;;-0.25;68.55;98562.47;5139568;27;20531;-75
2024/01/22 02:15:09;;;;;;;7.00;4.90;;;1.10;64.30;;;-0.20;68.56;98558.47;5120517;27;20446;-76
2024/01/22 02:17:37;;;;;;;4.30;3.90;;;1.10;64.20;;;-0.16;67.96;98551.06;5137674;27;20465;-73
2024/01/22 02:20:07;;;;;;;7.00;4.93;;;1.10;64.10;;;-0.58;68.22;98472.34;5143726;27;20582;-75
2024/01/22 02:22:35;;;;;;;8.40;5.53;;;1.10;64.00;;;-0.36;67.59;98508.50;5121239;27;21018;-75
2024/01/22 02:25:05;;;;;;;6.40;4.63;;;1.20;63.80;;;-0.10;67.47;98555.00;5113496;28;20448;-75
2024/01/22 02:27:33;;;;;;;6.10;4.80;;;1.20;63.70;;;-0.09;67.59;98544.22;5116369;27;20511;-73
2024/01/22 02:30:00;;;;;;;7.67;4.73;;;1.20;63.60;;;-0.03;67.22;98549.03;5140299;27;20931;-77
2024/01/22 02:32:35;;;;;;;9.50;4.57;;;1.20;63.50;;;-0.01;66.88;98544.41;5120833;27;20507;-75
2024/01/22 02:35:04;;;;;;;5.97;4.40;;;1.30;63.30;;;-0.02;66.79;98548.03;5126939;27;20461;-72
2024/01/22 02:37:32;;;;;;;5.90;4.43;;;1.30;63.30;;;0.07;66.72;98527.78;5132880;27;20461;-73
2024/01/22 02:40:00;;;;;;;4.93;4.40;;;1.30;63.10;;;0.02;66.53;98529.16;5125341;27;20478;-74
2024/01/22 02:42:30;;;;;;;6.60;4.60;;;1.30;63.00;;;0.08;66.37;98515.38;5119480;27;21069;-77
2024/01/22 02:44:57;;;;;;;6.80;4.90;;;1.30;62.90;;;0.12;66.46;98533.53;5142902;27;20452;-76
2024/01/22 02:47:24;;;;;;;5.73;4.60;;;1.40;62.80;;;0.11;66.11;98525.72;5127826;27;20451;-76
2024/01/22 02:49:52;;;;;;;5.87;4.27;;;1.40;62.70;;;0.13;65.85;98513.13;5098473;28;20476;-75
2024/01/22 02:52:20;;;;;;;6.63;4.70;;;1.40;62.50;;;0.15;65.49;98521.78;5148826;27;20452;-74
2024/01/22 02:54:47;;;;;;;6.00;4.03;;;1.40;62.50;;;0.05;65.80;98505.84;5101146;27;20467;-75
2024/01/22 02:57:15;;;;;;;4.67;4.10;;;1.40;62.30;;;0.13;65.33;98513.13;5103283;27;21042;-76
2024/01/22 02:59:43;;;;;;;4.80;4.20;;;1.40;62.30;;;0.06;65.46;98501.34;5122083;27;20475;-76
2024/01/22 03:02:11;;;;;;;5.53;3.90;;;1.40;62.20;;;0.15;65.49;98511.16;5138689;27;20452;-76
2024/01/22 03:04:38;;;;;;;5.67;4.20;;;1.40;62.00;;;0.17;65.10;98498.56;5110406;27;20450;-76
2024/01/22 03:07:08;;;;;;;5.47;3.80;;;1.40;62.10;;;0.15;65.01;98505.84;5118859;27;20685;-70
2024/01/22 03:09:35;;;;;;;5.57;3.10;;;1.40;61.80;;;0.14;65.02;98510.31;5121869;27;20541;-74
2024/01/22 03:12:03;;;;;;;5.17;3.90;;;1.40;61.70;;;0.18;64.93;98510.88;5139855;27;20456;-77
2024/01/22 03:14:30;;;;;;;7.63;4.23;;;1.40;61.80;;;0.21;64.81;98509.78;5125827;27;20451;-73
2024/01/22 03:16:59;;;;;;;4.60;4.10;;;1.50;61.80;;;0.25;64.73;98509.38;5142787;27;20455;-72
2024/01/22 03:19:26;;;;;;;7.10;3.93;;;1.40;61.70;;;0.25;64.73;98516.50;5119558;27;20456;-76
2024/01/22 03:21:56;;;;;;;8.00;4.43;;;1.50;61.70;;;0.31;64.41;98507.13;5147140;27;20816;-77
2024/01/22 03:24:24;;;;;;;4.57;3.70;;;1.50;61.50;;;0.29;64.58;98501.94;5122406;27;20444;-76
2024/01/22 03:26:51;;;;;;;7.13;4.33;;;1.50;61.40;;;0.32;64.63;98501.69;5124045;27;20801;-76
2024/01/22 03:29:22;;;;;;;9.00;3.80;;;1.50;61.50;;;0.36;64.29;98492.47;5146254;27;20445;-75
2024/01/22 03:31:49;;;;;;;6.37;3.93;;;1.60;61.30;;;0.36;64.09;98502.25;5139433;27;20440;-76
2024/01/22 03:34:18;;;;;;;5.77;3.70;;;1.60;61.10;;;0.46;63.49;98495.13;5142886;27;20465;-74
2024/01/22 03:36:45;;;;;;;6.93;4.00;;;1.70;61.20;;;0.41;63.88;98494.72;5121227;27;20499;-78
2024/01/22 03:39:12;;;;;;;4.90;4.40;;;1.70;61.10;;;0.36;64.25;98486.28;5124008;27;20449;-76
2024/01/22 03:41:39;;;;;;;3.73;3.37;;;1.70;61.00;;;0.50;63.68;98485.88;5122365;27;20954;-76
2024/01/22 03:44:06;;;;;;;4.50;3.53;;;1.70;61.00;;;0.59;63.16;98478.06;5139529;27;20467;-74
2024/01/22 03:46:34;;;;;;;3.57;2.97;;;1.80;60.70;;;0.45;63.03;98472.16;5147407;27;20457;-77
2024/01/22 03:49:01;;;;;;;5.00;4.13;;;1.70;60.60;;;0.41;63.60;98470.78;5129186;27;20454;-76
2024/01/22 03:51:30;;;;;;;4.67;3.80;;;1.70;60.70;;;0.38;63.53;98473.69;5139256;27;20511;-72
2024/01/22 03:53:57;;;;;;;7.10;3.80;;;1.70;60.80;;;0.36;63.53;98476.50;5146906;27;20452;-76
2024/01/22 03:56:26;;;;;;;3.63;3.33;;;1.60;60.70;;;0.34;63.94;98466.97;5128998;27;20761;-73
2024/01/22 03:58:54;;;;;;;4.80;4.30;;;1.60;60.90;;;0.30;64.18;98461.09;5154780;27;20480;-77
2024/01/22 04:01:22;;;;;;;6.30;4.60;;;1.50;60.80;;;0.26;64.09;98463.22;5141827;27;20599;-77
2024/01/22 04:03:51;;;;;;;3.70;3.30;;;1.50;60.70;;;0.23;64.33;98458.19;5136333;27;20459;-76
2024/01/22 04:06:20;;;;;;;5.00;3.37;;;1.50;60.80;;;0.26;64.10;98452.56;5146957;27;20493;-73
2024/01/22 04:08:49;;;;;;;6.23;3.77;;;1.40;60.80;;;0.26;64.09;98455.25;5134883;27;20465;-78
2024/01/22 04:11:17;;;;;;;6.83;4.13;;;1.50;60.90;;;0.09;64.08;98416.06;5135690;27;20467;-75
2024/01/22 04:13:45;;;;;;;4.77;3.53;;;1.50;61.10;;;0.22;64.33;98432.56;5143629;27;20451;-80
2024/01/22 04:16:16;;;;;;;6.80;3.60;;;1.40;61.10;;;0.15;64.71;98434.09;5136490;27;20450;-78
2024/01/22 04:18:44;;;;;;;4.50;3.60;;;1.40;61.20;;;0.10;64.99;98436.34;5145977;27;20465;-76
2024/01/22 04:21:12;;;;;;;4.40;3.13;;;1.30;61.30;;;0.11;65.04;98438.84;5106413;27;20479;-75
2024/01/22 04:23:40;;;;;;;4.40;3.70;;;1.30;61.40;;;0.03;64.99;98432.53;5143576;27;20445;-80
2024/01/22 04:26:09;;;;;;;4.40;3.33;;;1.30;61.50;;;0.11;65.57;98427.38;5133238;27;20556;-75
2024/01/22 04:28:36;;;;;;;3.83;3.40;;;1.30;61.60;;;0.18;65.41;98430.34;5136697;27;20741;-76
2024/01/22 04:31:06;;;;;;;4.70;3.40;;;1.30;61.80;;;0.21;65.88;98420.25;5126753;27;20455;-77
2024/01/22 04:33:33;;;;;;;4.30;3.00;;;1.40;61.90;;;0.19;66.17;98410.75;5130004;27;20473;-75
2024/01/22 04:36:02;;;;;;;4.40;3.60;;;1.40;62.10;;;0.33;65.82;98405.00;5145714;27;20447;-73
2024/01/22 04:38:30;;;;;;;4.43;3.23;;;1.50;62.10;;;-0.04;65.47;98337.47;5128464;27;20452;-76
2024/01/22 04:40:57;;;;;;;4.30;3.23;;;1.60;62.20;;;0.49;65.40;98407.09;5131402;27;21039;-76
2024/01/22 04:43:25;;;;;;;4.60;3.97;;;1.60;62.10;;;0.47;65.42;98417.03;5122870;27;20451;-78
2024/01/22 04:45:53;;;;;;;6.70;3.23;;;1.60;62.20;;;0.52;65.68;98422.75;5139857;27;20437;-76
2024/01/22 04:48:20;;;;;;;5.67;4.70;;;1.70;62.40;;;0.18;65.70;98363.88;5131015;27;20433;-76
2024/01/22 04:50:48;;;;;;;3.40;3.10;;;1.70;62.40;;;0.58;65.90;98420.53;5130609;27;20488;-77
2024/01/22 04:53:16;;;;;;;10.07;3.97;;;1.80;62.50;;;0.67;65.40;98406.34;5137786;27;20452;-78
2024/01/22 04:55:43;;;;;;;3.67;3.33;;;1.80;62.40;;;0.77;65.59;98409.84;5123510;27;20452;-77
2024/01/22 04:58:10;;;;;;;6.77;3.77;;;1.90;62.40;;;0.81;65.50;98405.09;5142520;27;20452;-78
2024/01/22 05:00:41;;;;;;;5.30;3.30;;;2.00;62.40;;;0.84;65.17;98400.34;5135067;27;20482;-78
2024/01/22 05:03:09;;;;;;;6.53;3.87;;;2.00;62.20;;;0.79;65.27;98401.75;5137838;27;20463;-81
2024/01/22 05:05:38;;;;;;;4.77;4.10;;;2.00;62.10;;;0.89;64.92;98401.72;5130377;27;20857;-75
2024/01/22 05:08:06;;;;;;;3.93;3.47;;;2.10;62.20;;;0.90;64.90;98387.44;5126934;27;21226;-77
2024/01/22 05:10:33;;;;;;;13.10;4.10;;;2.10;62.10;;;0.91;64.78;98389.94;5130802;27;20468;-77
2024/01/22 05:13:01;;;;;;;7.23;3.93;;;2.10;62.00;;;0.95;64.81;98386.00;5141861;27;20452;-74
2024/01/22 05:15:29;;;;;;;5.13;3.60;;;2.10;62.00;;;0.94;64.75;98383.47;5114361;27;20994;-76
2024/01/22 05:17:59;;;;;;;5.77;3.57;;;2.20;62.10;;;1.06;64.16;98374.34;5142950;27;20492;-76
2024/01/22 05:20:27;;;;;;;4.87;3.70;;;2.20;61.90;;;1.07;64.51;98385.84;5123862;27;21017;-79
2024/01/22 05:22:54;;;;;;;6.27;3.50;;;2.20;61.90;;;1.06;64.33;98381.47;5121903;27;20815;-76
2024/01/22 05:25:21;;;;;;;4.90;3.60;;;2.30;61.80;;;1.13;64.23;98372.75;5145690;27;20471;-80
2024/01/22 05:27:49;;;;;;;4.90;3.40;;;2.30;61.90;;;1.18;64.40;98371.50;5123185;27;20949;-74
2024/01/22 05:30:15;;;;;;;4.90;3.43;;;2.30;61.60;;;1.11;63.84;98366.75;5124263;27;20448;-78
2024/01/22 05:32:42;;;;;;;5.50;3.90;;;2.40;61.60;;;1.23;63.72;98369.22;5113221;27;20505;-78
2024/01/22 05:35:12;;;;;;;6.50;3.50;;;2.40;61.50;;;1.21;62.88;98369.38;5139547;27;20914;-76
2024/01/22 05:37:39;;;;;;;4.97;3.50;;;2.50;61.10;;;1.25;63.31;98367.25;5123048;27;20479;-73
2024/01/22 05:40:11;;;;;;;4.67;3.50;;;2.50;61.10;;;1.41;62.53;98375.44;5141287;27;20513;-75
2024/01/22 05:42:38;;;;;;;3.80;2.70;;;2.60;60.80;;;1.48;61.77;98354.38;5125506;27;21076;-75
2024/01/22 05:45:08;;;;;;;10.03;3.77;;;2.70;60.60;;;1.48;61.50;98369.53;5139754;27;20456;-74
2024/01/22 05:47:35;;;;;;;5.40;3.40;;;2.70;60.30;;;1.58;61.14;98354.31;5122878;27;20456;-75
2024/01/22 05:50:02;;;;;;;4.13;3.30;;;2.70;60.00;;;1.60;60.85;98357.69;5147763;27;20456;-76
2024/01/22 05:52:31;;;;;;;3.63;3.30;;;2.80;59.80;;;1.67;60.46;98345.44;5143254;27;20458;-71
2024/01/22 05:54:58;;;;;;;4.30;3.00;;;2.80;59.40;;;1.59;60.17;98337.34;5120586;27;20449;-75
2024/01/22 05:57:25;;;;;;;4.37;3.20;;;2.80;59.10;;;1.67;60.05;98334.78;5142735;27;20483;-74
2024/01/22 05:59:53;;;;;;;5.53;3.10;;;2.80;59.00;;;1.64;59.47;98331.56;5118983;27;20490;-77
2024/01/22 06:02:20;;;;;;;6.93;3.43;;;2.90;59.20;;;1.82;59.79;98332.47;5138716;27;20504;-75
2024/01/22 06:04:48;;;;;;;6.37;3.30;;;2.90;58.90;;;1.73;59.34;98324.50;5132464;27;20440;-74
2024/01/22 06:07:15;;;;;;;4.70;3.83;;;2.90;58.50;;;1.77;59.17;98317.91;5120514;27;20446;-69
2024/01/22 06:09:44;;;;;;;5.43;3.50;;;2.90;58.60;;;1.65;59.31;98311.94;5123991;27;20475;-74
2024/01/22 06:12:12;;;;;;;3.77;3.00;;;2.90;58.40;;;1.63;59.12;98320.09;5146089;27;20442;-72
2024/01/22 06:14:40;;;;;;;7.20;3.80;;;2.80;58.30;;;1.80;58.63;98304.28;5128870;27;20851;-74
2024/01/22 06:17:07;;;;;;;5.27;2.80;;;2.90;58.30;;;1.24;58.59;98225.34;5124202;27;20472;-75
2024/01/22 06:19:34;;;;;;;4.63;3.40;;;3.00;58.30;;;1.66;59.33;98302.97;5128669;27;20457;-75
2024/01/22 06:22:03;;;;;;;7.80;3.20;;;2.90;58.20;;;1.72;59.03;98302.38;5122705;27;20494;-74
2024/01/22 06:24:34;;;;;;;4.17;3.30;;;2.90;58.20;;;1.77;58.89;98293.94;5133126;27;20548;-73
2024/01/22 06:27:03;;;;;;;8.03;2.90;;;2.90;58.30;;;1.31;58.92;98225.56;5139074;27;20458;-74
2024/01/22 06:29:30;;;;;;;5.00;3.47;;;2.90;58.30;;;1.69;59.63;98287.53;5140055;27;20449;-73
2024/01/22 06:31:58;;;;;;;7.80;3.50;;;3.00;58.30;;;1.74;60.09;98286.22;5135663;27;21070;-77
2024/01/22 06:34:25;;;;;;;6.67;3.90;;;3.00;58.70;;;1.87;60.41;98277.84;5133408;27;20560;-79
2024/01/22 06:36:52;;;;;;;7.50;3.93;;;3.00;59.10;;;1.82;59.81;98270.31;5125431;27;20457;-79
2024/01/22 06:39:19;;;;;;;3.30;2.87;;;3.00;58.40;;;1.73;60.31;98266.75;5123953;27;20452;-78
2024/01/22 06:41:47;;;;;;;6.87;3.57;;;2.90;58.50;;;1.62;59.62;98243.84;5144794;27;20485;-79
2024/01/22 06:44:15;;;;;;;9.53;3.57;;;2.90;58.40;;;1.75;59.67;98253.28;5118490;27;20547;-80
2024/01/22 06:46:43;;;;;;;4.80;3.00;;;2.90;58.40;;;1.78;59.79;98258.31;5144989;27;20452;-78
2024/01/22 06:49:10;;;;;;;7.60;3.27;;;3.00;58.50;;;1.95;59.64;98253.94;5126659;27;20451;-79
2024/01/22 06:51:37;;;;;;;7.10;3.20;;;3.00;58.40;;;1.92;59.50;98247.09;5127330;27;20448;-84
2024/01/22 06:54:05;;;;;;;13.40;3.10;;;3.10;58.30;;;1.96;59.74;98235.13;5139612;27;20443;-78
2024/01/22 06:56:32;;;;;;;7.03;3.50;;;3.10;58.40;;;2.00;59.18;98234.81;5120482;27;20461;-81
2024/01/22 06:59:00;;;;;;;3.63;2.90;;;3.20;58.40;;;1.84;59.12;98199.91;5127255;27;20485;-72
2024/01/22 07:01:28;;;;;;;5.93;3.10;;;3.20;58.40;;;2.09;59.60;98236.56;5138934;27;20548;-75
2024/01/22 07:03:56;;;;;;;11.60;4.23;;;3.20;58.40;;;2.11;58.92;98230.06;5137961;27;20459;-81
2024/01/22 07:06:23;;;;;;;6.50;3.03;;;3.30;58.30;;;2.15;59.03;98227.94;5144443;27;20453;-80
2024/01/22 07:08:50;;;;;;;6.13;3.57;;;3.40;58.30;;;2.30;59.23;98224.69;5127481;27;20452;-82
2024/01/22 07:11:19;;;;;;;10.77;3.10;;;3.40;58.30;;;2.43;58.68;98241.09;5124898;27;20455;-82
2024/01/22 07:13:46;;;;;;;3.87;2.80;;;3.50;58.30;;;2.44;58.33;98226.78;5126808;27;21233;-80
2024/01/22 07:16:14;;;;;;;13.20;4.03;;;3.60;58.20;;;2.30;58.16;98190.88;5127704;27;20473;-76
2024/01/22 07:18:43;;;;;;;7.07;3.30;;;3.60;58.20;;;2.51;58.51;98221.63;5123749;27;20452;-77
2024/01/22 07:21:10;;;;;;;4.70;3.00;;;3.70;58.30;;;2.58;57.97;98221.84;5146573;27;20475;-77
2024/01/22 07:23:38;;;;;;;6.57;2.90;;;3.70;58.10;;;2.66;58.23;98229.91;5145040;27;20948;-79
2024/01/22 07:26:05;;;;;;;5.23;3.10;;;3.80;58.20;;;2.53;58.75;98223.16;5145846;27;20445;-78
2024/01/22 07:28:33;;;;;;;5.97;3.27;;;3.70;58.10;;;2.63;58.86;98211.53;5144326;27;20463;-78
2024/01/22 07:31:01;;;;;;;4.63;3.30;;;3.80;58.10;;;2.67;58.79;98219.06;5147234;27;20990;-77
2024/01/22 07:33:30;;;;;;;3.77;2.60;;;3.80;58.20;;;2.78;58.70;98217.91;5129028;27;21150;-79
2024/01/22 07:35:58;;;;;;;4.50;3.27;;;3.90;58.10;;;2.79;58.45;98208.91;5132262;27;20476;-79
2024/01/22 07:38:26;;;;;;;5.07;2.97;;;3.90;58.00;;;2.80;58.32;98215.94;5124906;27;20512;-79
2024/01/22 07:40:53;;;;;;;3.73;2.50;;;4.00;58.00;;;2.87;57.69;98218.78;5124258;27;21231;-78
2024/01/22 07:43:20;;;;;;;4.63;3.30;;;4.00;58.10;;;2.83;58.70;98204.94;5138164;27;20519;-79
2024/01/22 07:45:48;;;;;;;5.33;3.40;;;4.00;58.00;;;2.97;58.33;98222.16;5125798;27;20848;-75
2024/01/22 07:48:16;;;;;;;9.23;3.00;;;4.10;58.00;;;3.18;57.89;98225.41;5121531;27;20479;-82
2024/01/22 07:50:43;;;;;;;6.10;3.40;;;4.20;58.10;;;3.18;57.45;98223.56;5119628;27;20455;-82
2024/01/22 07:53:12;;;;;;;3.07;2.43;;;4.20;58.00;;;3.20;57.77;98236.75;5123894;27;20452;-77
2024/01/22 07:55:39;;;;;;;6.00;2.93;;;4.30;58.00;;;3.08;59.30;98177.50;5161273;27;20455;-77
2024/01/22 07:58:07;;;;;;;5.43;2.60;;;4.40;58.90;;;3.56;58.27;98225.78;5147994;27;20452;-76
2024/01/22 08:00:34;;;;;;;4.27;3.07;;;4.60;59.40;;;3.59;57.75;98217.47;5141088;27;20557;-76
2024/01/22 08:03:02;;;;;;;5.70;3.10;;;4.70;58.50;;;3.42;57.18;98231.81;5120080;27;20477;-73
2024/01/22 08:05:30;;;;;;;5.30;3.20;;;4.60;57.80;;;3.63;57.40;98232.16;5137821;27;20544;-71
2024/01/22 08:07:57;;;;;;;5.90;2.50;;;4.70;58.40;;;3.43;57.12;98230.81;5140869;27;20452;-70
2024/01/22 08:10:26;;;;;;;5.60;4.27;;;4.60;57.90;;;3.31;57.67;98204.41;5140015;27;20501;-71
2024/01/22 08:12:53;;;;;;;5.73;3.23;;;4.60;58.10;;;3.56;58.03;98203.59;5141454;27;20448;-72
2024/01/22 08:15:21;;;;;;;6.43;3.07;;;4.60;58.30;;;3.62;58.16;98208.28;5142455;27;20890;-72
2024/01/22 08:17:51;;;;;;;5.43;2.80;;;4.70;58.40;;;3.64;58.74;98206.25;5137750;27;20579;-69
2024/01/22 08:20:18;;;;;;;10.43;3.60;;;4.70;58.50;;;3.87;57.76;98201.13;5138425;27;20475;-70
2024/01/22 08:22:46;;;;;;;4.17;2.97;;;4.90;58.50;;;3.66;57.78;98198.94;5117685;27;20514;-71
2024/01/22 08:25:18;;;;;;;4.50;2.70;;;4.80;58.30;;;3.62;57.56;98190.41;5127156;27;20452;-71
2024/01/22 08:27:47;;;;;;;4.73;3.47;;;4.80;58.30;;;3.65;58.77;98182.06;5122547;27;20441;-70
2024/01/22 08:30:15;;;;;;;5.40;3.40;;;4.80;58.40;;;3.66;57.79;98181.06;5139378;27;20624;-69
2024/01/22 08:32:42;;;;;;;6.60;2.90;;;4.80;58.40;;;3.71;57.68;98174.38;5150019;27;20455;-70
2024/01/22 08:35:10;;;;;;;5.37;2.37;;;4.80;58.50;;;3.70;58.17;98146.81;5143370;27;20448;-72
2024/01/22 08:37:39;;;;;;;7.37;2.80;;;4.90;58.70;;;3.70;58.34;98162.84;5144666;27;20481;-73
2024/01/22 08:40:09;;;;;;;12.97;3.77;;;4.80;58.60;;;3.73;58.52;98157.16;5132574;27;20997;-71
2024/01/22 08:42:36;;;;;;;6.70;2.40;;;4.90;58.60;;;3.77;59.39;98163.03;5138717;27;20479;-72
2024/01/22 08:45:06;;;;;;;3.57;2.97;;;4.90;58.80;;;3.81;58.54;98164.34;5135625;27;20460;-72
2024/01/22 08:47:33;;;;;;;5.43;2.40;;;4.90;58.60;;;3.49;58.00;98099.25;5140772;27;20454;-72
2024/01/22 08:50:01;;;;;;;8.40;3.20;;;5.00;58.60;;;3.95;58.70;98152.16;5145376;27;20513;-73
2024/01/22 08:52:29;;;;;;;4.70;2.90;;;5.10;58.80;;;4.02;57.79;98154.94;5124156;27;20451;-78
2024/01/22 08:54:56;;;;;;;6.83;3.20;;;5.10;58.80;;;3.99;58.52;98145.44;5118428;27;20452;-74
2024/01/22 08:57:23;;;;;;;2.83;2.50;;;5.10;58.60;;;4.01;58.09;98127.41;5140526;27;20452;-74
2024/01/22 08:59:50;;;;;;;4.40;2.87;;;5.20;58.80;;;4.07;57.71;98147.28;5143658;27;20460;-76
2024/01/22 09:02:19;;;;;;;2.67;2.10;;;5.20;58.50;;;4.14;57.13;98142.09;5119950;27;20470;-70
2024/01/22 09:04:46;;;;;;;6.60;2.37;;;5.30;58.40;;;4.02;57.76;98154.94;5141012;27;20466;-69
2024/01/22 09:07:14;;;;;;;9.77;2.90;;;5.20;58.40;;;4.35;57.55;98145.00;5147390;27;20500;-69
2024/01/22 09:09:42;;;;;;;4.07;2.60;;;5.40;58.90;;;4.30;57.93;98141.19;5141074;27;20464;-69
2024/01/22 09:12:10;;;;;;;4.20;2.57;;;5.40;58.40;;;4.32;57.48;98131.13;5122444;27;20740;-69
2024/01/22 09:14:37;;;;;;;3.40;2.47;;;5.40;58.30;;;4.40;57.64;98141.81;5142006;27;20517;-69
2024/01/22 09:17:05;;;;;;;2.70;2.30;;;5.40;58.40;;;4.42;57.61;98134.47;5119380;27;20461;-69
2024/01/22 09:19:35;;;;;;;6.83;3.10;;;5.40;58.40;;;4.45;57.05;98134.09;5143336;27;20443;-70
2024/01/22 09:22:03;;;;;;;5.73;2.80;;;5.50;58.50;;;4.48;56.73;98120.41;5145947;27;20467;-73
2024/01/22 09:24:30;;;;;;;2.90;2.47;;;5.50;58.00;;;4.70;56.45;98115.28;5127923;27;20479;-72
2024/01/22 09:26:57;;;;;;;3.87;3.10;;;5.60;58.40;;;4.56;56.90;98108.84;5139859;27;20443;-72
2024/01/22 09:29:24;;;;;;;5.57;3.50;;;5.60;57.90;;;4.57;56.60;98110.50;5147351;27;20468;-74
2024/01/22 09:31:53;;;;;;;2.90;2.47;;;5.70;58.10;;;4.72;55.93;98115.94;5121152;27;20457;-72
2024/01/22 09:34:20;;;;;;;2.97;2.57;;;5.70;57.80;;;4.74;56.00;98127.28;5127866;27;20563;-72
2024/01/22 09:36:49;;;;;;;5.20;3.10;;;5.80;57.80;;;4.72;55.84;98099.06;5145426;27;20450;-72
2024/01/22 09:39:16;;;;;;;2.80;2.33;;;5.80;57.80;;;4.77;56.26;98089.47;5148136;27;20456;-72
2024/01/22 09:41:43;;;;;;;3.50;2.50;;;5.90;57.80;;;4.78;56.03;98096.50;5139885;27;20530;-72
2024/01/22 09:44:11;;;;;;;5.33;2.60;;;5.90;57.60;;;4.95;55.42;98113.28;5147251;27;20476;-71
2024/01/22 09:46:39;;;;;;;2.93;2.20;;;5.90;57.70;;;5.01;55.20;98122.47;5138119;27;20462;-72
2024/01/22 09:49:06;;;;;;;2.83;2.53;;;6.00;57.60;;;4.90;55.13;98106.78;5128718;27;20874;-72
2024/01/22 09:51:41;;;;;;;4.63;2.53;;;6.00;57.30;;;4.93;55.26;98087.72;5144904;27;20453;-72
2024/01/22 09:54:17;;;;;;;2.67;2.23;;;6.10;57.40;;;5.24;54.86;98101.03;5140685;27;20558;-72
2024/01/22 09:56:52;;;;;;;4.33;2.50;;;6.20;57.30;;;5.22;54.67;98107.56;5139886;27;20456;-73
2024/01/22 09:59:21;;;;;;;4.20;2.17;;;6.30;57.00;;;5.49;54.50;98091.97;5142751;27;20574;-71
2024/01/22 10:01:51;;;;;;;6.10;3.40;;;6.40;57.30;;;5.68;53.51;98112.06;5137983;27;20950;-71
2024/01/22 10:04:19;;;;;;;3.50;2.90;;;6.60;56.80;;;5.73;53.32;98090.09;5125877;27;20625;-72
2024/01/22 10:06:48;;;;;;;2.33;2.10;;;6.70;56.70;;;5.73;53.58;98103.50;5124705;27;20454;-72
2024/01/22 10:09:17;;;;;;;3.93;2.43;;;6.80;56.60;;;5.75;53.65;98093.41;5140998;27;20457;-72
2024/01/22 10:11:46;;;;;;;3.10;2.73;;;6.70;56.50;;;5.86;53.48;98092.97;5122431;27;20453;-72
2024/01/22 10:14:14;;;;;;;7.30;2.77;;;6.80;56.70;;;5.77;53.75;98081.50;5150919;27;20453;-72
2024/01/22 10:16:42;;;;;;;3.87;2.60;;;6.80;56.70;;;5.84;53.76;98081.59;5123329;27;21245;-72
2024/01/22 10:19:10;;;;;;;3.07;2.20;;;6.90;56.70;;;5.98;53.37;98084.44;5134248;27;20473;-73
2024/01/22 10:21:39;;;;;;;4.83;2.73;;;7.00;56.60;;;5.91;53.46;98079.84;5124897;27;20453;-71
2024/01/22 10:24:08;;;;;;;2.97;2.37;;;7.00;56.60;;;5.95;54.08;98086.50;5115580;27;20481;-72
2024/01/22 10:26:38;;;;;;;4.77;2.63;;;7.00;56.80;;;5.87;54.17;98086.59;5135006;27;20464;-72
2024/01/22 10:29:15;;;;;;;18.00;3.70;;;7.00;56.70;;;5.98;53.89;98090.66;5122453;27;20932;-72
2024/01/22 10:31:55;;;;;;;6.30;3.10;;;7.00;56.80;;;6.02;54.55;98085.81;5128443;27;21025;-72
2024/01/22 10:34:24;;;;;;;11.63;3.90;;;7.10;57.00;;;6.11;54.09;98071.25;5134294;27;20491;-71